createdAt,value
2023-02-19T00:02:19.673Z,9.11
2023-02-19T00:04:51.804Z,9.01
2023-02-19T00:07:21.456Z,9.09
2023-02-19T00:09:51.021Z,9.09
2023-02-19T00:12:20.603Z,9.35
2023-02-19T00:14:50.138Z,9.22
2023-02-19T00:17:19.698Z,9.33
2023-02-19T00:19:51.810Z,9.41
2023-02-19T00:22:21.391Z,9.40
2023-02-19T00:24:51.223Z,9.62
2023-02-19T00:27:20.794Z,9.44
2023-02-19T00:29:50.521Z,9.34
2023-02-19T00:32:20.106Z,9.10
2023-02-19T00:34:52.325Z,9.00
2023-02-19T00:37:21.932Z,9.24
2023-02-19T00:39:51.632Z,9.21
2023-02-19T00:42:21.253Z,9.12
2023-02-19T00:44:50.851Z,9.14
2023-02-19T00:47:22.942Z,9.30
2023-02-19T00:49:55.113Z,9.28
2023-02-19T00:52:24.655Z,9.37
2023-02-19T00:54:54.242Z,9.38
2023-02-19T00:57:23.776Z,9.51
2023-02-19T00:59:53.403Z,9.59
2023-02-19T01:02:23.065Z,9.84
2023-02-19T01:04:55.533Z,9.95
2023-02-19T01:07:25.098Z,10.06
2023-02-19T01:09:54.644Z,9.80
2023-02-19T01:12:25.797Z,9.60
2023-02-19T01:14:55.401Z,9.65
2023-02-19T01:17:24.972Z,10.64
2023-02-19T01:19:57.650Z,10.80
2023-02-19T01:22:27.186Z,10.87
2023-02-19T01:24:56.718Z,10.09
2023-02-19T01:27:26.274Z,10.31
2023-02-19T01:29:56.063Z,9.76
2023-02-19T01:32:25.661Z,9.47
2023-02-19T01:34:57.884Z,9.26
2023-02-19T01:37:27.817Z,9.31
2023-02-19T01:39:57.398Z,9.69
2023-02-19T01:42:27.055Z,9.79
2023-02-19T01:45:20.709Z,9.97
2023-02-19T01:47:55.063Z,9.68
2023-02-19T01:50:31.130Z,9.70
2023-02-19T01:53:02.151Z,9.76
2023-02-19T01:55:31.895Z,9.44
2023-02-19T01:58:04.524Z,9.50
2023-02-19T02:00:35.749Z,9.29
2023-02-19T02:03:05.749Z,9.45
2023-02-19T02:05:51.617Z,8.97
2023-02-19T02:08:35.584Z,8.80
2023-02-19T02:11:05.608Z,8.83
2023-02-19T02:13:37.550Z,8.88
2023-02-19T02:16:24.402Z,8.94
2023-02-19T02:19:04.531Z,9.01
2023-02-19T02:22:04.432Z,9.03
2023-02-19T02:25:15.407Z,9.05
2023-02-19T02:27:55.012Z,9.00
2023-02-19T02:30:39.099Z,8.97
2023-02-19T02:33:17.262Z,8.98
2023-02-19T02:35:51.019Z,8.99
2023-02-19T02:38:27.252Z,9.03
2023-02-19T02:40:58.106Z,8.96
2023-02-19T02:43:28.398Z,8.94
2023-02-19T02:46:01.062Z,9.07
2023-02-19T02:48:38.997Z,9.08
2023-02-19T02:51:16.939Z,9.19
2023-02-19T02:54:08.828Z,9.10
2023-02-19T02:56:40.343Z,8.94
2023-02-19T02:59:13.289Z,8.87
2023-02-19T03:02:00.727Z,8.84
2023-02-19T03:04:58.172Z,8.84
2023-02-19T03:07:31.550Z,8.86
2023-02-19T03:10:02.653Z,8.89
2023-02-19T03:12:48.176Z,8.88
2023-02-19T03:15:32.204Z,8.87
2023-02-19T03:18:20.500Z,8.86
2023-02-19T03:20:54.475Z,8.86
2023-02-19T03:23:47.022Z,8.84
2023-02-19T03:26:17.538Z,8.83
2023-02-19T03:29:08.150Z,8.79
2023-02-19T03:31:43.875Z,8.87
2023-02-19T03:34:24.211Z,8.86
2023-02-19T03:37:01.153Z,8.88
2023-02-19T03:39:32.523Z,8.91
2023-02-19T03:42:08.659Z,8.92
2023-02-19T03:44:44.758Z,8.86
2023-02-19T03:47:19.675Z,9.00
2023-02-19T03:49:59.575Z,8.94
2023-02-19T03:52:41.973Z,8.94
2023-02-19T03:55:19.342Z,8.92
2023-02-19T03:57:55.648Z,8.97
2023-02-19T04:00:30.011Z,9.00
2023-02-19T04:03:06.644Z,9.03
2023-02-19T04:05:44.227Z,9.08
2023-02-19T04:08:18.397Z,9.07
2023-02-19T04:10:56.035Z,9.07
2023-02-19T04:13:33.651Z,8.98
2023-02-19T04:16:07.236Z,9.02
2023-02-19T04:18:41.473Z,9.00
2023-02-19T04:21:14.109Z,9.11
2023-02-19T04:23:46.887Z,9.01
2023-02-19T04:26:18.140Z,8.98
2023-02-19T04:28:47.728Z,8.98
2023-02-19T04:31:17.794Z,8.97
2023-02-19T04:33:47.438Z,8.99
2023-02-19T04:36:19.575Z,8.98
2023-02-19T04:38:49.147Z,9.01
2023-02-19T04:41:18.691Z,8.98
2023-02-19T04:43:48.249Z,9.01
2023-02-19T04:46:17.903Z,8.97
2023-02-19T04:48:47.493Z,9.04
2023-02-19T04:51:19.930Z,9.02
2023-02-19T04:53:49.490Z,9.00
2023-02-19T04:56:20.438Z,8.95
2023-02-19T04:58:50.052Z,8.45
2023-02-19T05:01:20.242Z,8.14
2023-02-19T05:03:50.135Z,7.33
2023-02-19T05:06:23.436Z,6.65
2023-02-19T05:08:52.980Z,6.28
2023-02-19T05:11:23.831Z,5.97
2023-02-19T05:13:53.488Z,5.82
2023-02-19T05:16:23.087Z,5.65
2023-02-19T05:18:52.625Z,5.58
2023-02-19T05:21:24.759Z,5.47
2023-02-19T05:23:54.377Z,5.48
2023-02-19T05:26:26.815Z,5.43
2023-02-19T05:28:57.032Z,5.61
2023-02-19T05:31:27.062Z,5.98
2023-02-19T05:33:58.051Z,6.05
2023-02-19T05:36:30.633Z,5.48
2023-02-19T05:39:01.245Z,5.22
2023-02-19T05:41:32.738Z,5.23
2023-02-19T05:44:02.565Z,5.40
2023-02-19T05:46:33.215Z,5.11
2023-02-19T05:49:03.344Z,5.42
2023-02-19T05:51:35.554Z,5.39
2023-02-19T05:54:05.113Z,5.03
2023-02-19T05:56:36.396Z,4.90
2023-02-19T05:59:08.111Z,4.96
2023-02-19T06:01:38.799Z,5.19
2023-02-19T06:04:08.553Z,4.98
2023-02-19T06:06:41.378Z,4.95
2023-02-19T06:09:11.803Z,5.32
2023-02-19T06:11:43.636Z,5.77
2023-02-19T06:14:15.194Z,5.36
2023-02-19T06:16:45.107Z,5.79
2023-02-19T06:19:14.670Z,6.21
2023-02-19T06:21:46.792Z,6.43
2023-02-19T06:24:16.356Z,6.06
2023-02-19T06:26:46.641Z,6.22
2023-02-19T06:29:16.242Z,6.13
2023-02-19T06:31:46.081Z,6.32
2023-02-19T06:34:15.734Z,6.18
2023-02-19T06:36:47.852Z,5.85
2023-02-19T06:39:17.410Z,5.64
2023-02-19T06:41:47.425Z,5.85
2023-02-19T06:44:17.046Z,6.01
2023-02-19T06:46:46.696Z,5.76
2023-02-19T06:49:16.376Z,5.88
2023-02-19T06:51:48.559Z,6.14
2023-02-19T06:54:18.138Z,5.94
2023-02-19T06:56:47.847Z,5.95
2023-02-19T06:59:19.511Z,6.18
2023-02-19T07:01:49.104Z,5.64
2023-02-19T07:04:18.798Z,5.70
2023-02-19T07:06:51.085Z,5.18
2023-02-19T07:09:20.721Z,4.86
2023-02-19T07:11:50.306Z,4.43
2023-02-19T07:14:21.067Z,4.20
2023-02-19T07:16:51.250Z,4.05
2023-02-19T07:19:20.872Z,3.88
2023-02-19T07:21:53.003Z,3.62
2023-02-19T07:24:22.726Z,3.58
2023-02-19T07:26:52.272Z,3.85
2023-02-19T07:29:21.880Z,3.72
2023-02-19T07:31:51.487Z,3.64
2023-02-19T07:34:21.046Z,3.76
2023-02-19T07:36:53.490Z,3.78
2023-02-19T07:39:23.096Z,3.96
2023-02-19T07:41:52.641Z,4.25
2023-02-19T07:44:32.229Z,4.62
2023-02-19T07:47:01.802Z,4.33
2023-02-19T07:49:31.424Z,4.53
2023-02-19T07:52:03.641Z,4.68
2023-02-19T07:54:33.285Z,4.43
2023-02-19T07:57:02.838Z,4.18
2023-02-19T07:59:32.426Z,4.14
2023-02-19T08:02:14.533Z,3.90
2023-02-19T08:04:45.732Z,3.38
2023-02-19T08:07:17.904Z,3.63
2023-02-19T08:10:07.505Z,3.14
2023-02-19T08:12:50.045Z,3.30
2023-02-19T08:15:22.157Z,3.86
2023-02-19T08:17:51.962Z,4.27
2023-02-19T08:20:21.656Z,4.16
2023-02-19T08:22:53.833Z,4.17
2023-02-19T08:25:23.419Z,3.69
2023-02-19T08:27:52.990Z,4.08
2023-02-19T08:30:22.579Z,4.49
2023-02-19T08:32:52.192Z,4.73
2023-02-19T08:35:21.813Z,4.65
2023-02-19T08:37:54.142Z,4.89
2023-02-19T08:40:23.727Z,4.98
2023-02-19T08:42:53.525Z,4.62
2023-02-19T08:45:24.358Z,4.72
2023-02-19T08:47:53.918Z,4.99
2023-02-19T08:50:23.469Z,5.00
2023-02-19T08:52:55.688Z,4.99
2023-02-19T08:55:25.262Z,5.18
2023-02-19T08:57:55.109Z,5.73
2023-02-19T09:00:25.074Z,5.32
2023-02-19T09:02:54.620Z,5.27
2023-02-19T09:05:24.217Z,5.61
2023-02-19T09:07:56.349Z,5.48
2023-02-19T09:10:25.980Z,5.18
2023-02-19T09:12:55.603Z,5.19
2023-02-19T09:15:25.852Z,5.08
2023-02-19T09:17:56.098Z,5.38
2023-02-19T09:20:25.678Z,5.39
2023-02-19T09:23:01.953Z,5.17
2023-02-19T09:25:31.529Z,5.21
2023-02-19T09:28:01.098Z,5.47
2023-02-19T09:30:30.764Z,5.27
2023-02-19T09:33:00.332Z,5.19
2023-02-19T09:35:29.912Z,5.28
2023-02-19T09:38:03.493Z,5.54
2023-02-19T09:40:33.422Z,5.21
2023-02-19T09:43:02.980Z,5.24
2023-02-19T09:45:32.790Z,5.24
2023-02-19T09:48:02.353Z,5.40
2023-02-19T09:50:36.912Z,5.22
2023-02-19T09:53:17.254Z,5.33
2023-02-19T09:55:47.777Z,5.37
2023-02-19T09:58:27.206Z,5.65
2023-02-19T10:01:01.618Z,5.97
2023-02-19T10:03:35.016Z,5.61
2023-02-19T10:06:11.380Z,6.25
2023-02-19T10:08:44.882Z,6.73
2023-02-19T10:11:15.582Z,5.88
2023-02-19T10:13:48.816Z,6.15
2023-02-19T10:16:22.337Z,6.46
2023-02-19T10:18:51.948Z,5.93
2023-02-19T10:21:25.040Z,5.97
2023-02-19T10:24:02.188Z,6.43
2023-02-19T10:26:34.791Z,6.58
2023-02-19T10:29:05.171Z,6.88
2023-02-19T10:31:36.011Z,7.04
2023-02-19T10:34:07.667Z,6.49
2023-02-19T10:36:41.705Z,6.21
2023-02-19T10:39:35.966Z,6.97
2023-02-19T10:42:06.355Z,6.70
2023-02-19T10:44:45.069Z,6.26
2023-02-19T10:47:20.036Z,6.85
2023-02-19T10:49:51.402Z,6.46
2023-02-19T10:52:24.813Z,6.59
2023-02-19T10:54:59.610Z,6.95
2023-02-19T10:57:37.520Z,7.29
2023-02-19T11:00:26.744Z,6.93
2023-02-19T11:03:17.586Z,6.40
2023-02-19T11:05:57.191Z,6.69
2023-02-19T11:08:30.930Z,6.60
2023-02-19T11:11:03.130Z,6.50
2023-02-19T11:13:38.142Z,6.85
2023-02-19T11:16:08.272Z,6.64
2023-02-19T11:18:39.287Z,6.25
2023-02-19T11:21:11.042Z,6.47
2023-02-19T11:23:47.706Z,6.78
2023-02-19T11:26:23.595Z,6.71
2023-02-19T11:29:00.528Z,6.54
2023-02-19T11:31:32.031Z,6.63
2023-02-19T11:34:04.862Z,6.41
2023-02-19T11:36:36.629Z,6.34
2023-02-19T11:39:24.679Z,5.88
2023-02-19T11:42:17.902Z,5.79
2023-02-19T11:44:57.657Z,6.29
2023-02-19T11:47:54.308Z,6.84
2023-02-19T11:50:27.635Z,6.72
2023-02-19T11:53:12.739Z,6.40
2023-02-19T11:55:55.145Z,6.70
2023-02-19T11:58:49.901Z,6.40
2023-02-19T12:01:26.526Z,6.63
2023-02-19T12:04:18.618Z,6.74
2023-02-19T12:07:00.854Z,6.84
2023-02-19T12:09:45.865Z,6.85
2023-02-19T12:12:33.292Z,6.28
2023-02-19T12:15:25.407Z,6.69
2023-02-19T12:18:37.521Z,6.52
2023-02-19T12:21:26.027Z,6.59
2023-02-19T12:24:11.802Z,6.92
2023-02-19T12:26:50.194Z,7.13
2023-02-19T12:29:33.515Z,6.85
2023-02-19T12:32:20.424Z,6.92
2023-02-19T12:35:16.093Z,6.67
2023-02-19T12:37:52.473Z,7.13
2023-02-19T12:40:34.003Z,7.35
2023-02-19T12:43:14.786Z,6.98
2023-02-19T12:45:50.729Z,7.03
2023-02-19T12:48:32.803Z,7.28
2023-02-19T12:51:10.549Z,7.24
2023-02-19T12:53:47.084Z,7.18
2023-02-19T12:56:21.655Z,7.01
2023-02-19T12:58:54.199Z,7.15
2023-02-19T13:01:28.142Z,7.11
2023-02-19T13:04:20.580Z,7.04
2023-02-19T13:06:55.754Z,7.08
2023-02-19T13:09:32.339Z,7.27
2023-02-19T13:12:05.976Z,6.77
2023-02-19T13:14:40.358Z,6.82
2023-02-19T13:17:22.408Z,7.09
2023-02-19T13:19:59.326Z,6.94
2023-02-19T13:22:49.823Z,7.08
2023-02-19T13:25:21.685Z,6.88
2023-02-19T13:28:04.581Z,7.00
2023-02-19T13:31:00.693Z,6.89
2023-02-19T13:33:42.656Z,6.93
2023-02-19T13:36:19.109Z,6.83
2023-02-19T13:38:51.581Z,7.06
2023-02-19T13:41:24.563Z,7.51
2023-02-19T13:44:00.162Z,7.38
2023-02-19T13:46:41.331Z,7.38
2023-02-19T13:49:46.415Z,7.36
2023-02-19T13:52:41.334Z,7.50
2023-02-19T13:55:42.374Z,7.44
2023-02-19T13:58:39.935Z,7.39
2023-02-19T14:01:11.983Z,7.41
2023-02-19T14:03:52.179Z,7.06
2023-02-19T14:06:21.857Z,6.92
2023-02-19T14:08:56.608Z,7.00
2023-02-19T14:11:56.618Z,6.98
2023-02-19T14:14:29.450Z,6.91
2023-02-19T14:17:08.185Z,6.99
2023-02-19T14:20:02.849Z,7.38
2023-02-19T14:22:52.596Z,7.66
2023-02-19T14:25:42.130Z,7.58
2023-02-19T14:28:25.372Z,7.09
2023-02-19T14:30:56.549Z,7.17
2023-02-19T14:33:29.430Z,7.11
2023-02-19T14:36:05.867Z,7.30
2023-02-19T14:51:36.334Z,7.00
2023-02-19T14:54:15.817Z,7.20
2023-02-19T15:15:33.001Z,7.41
2023-02-19T15:18:03.972Z,7.42
2023-02-19T15:20:36.821Z,7.61
2023-02-19T15:23:10.329Z,7.24
2023-02-19T15:25:41.323Z,7.61
2023-02-19T15:28:30.256Z,7.47
2023-02-19T15:31:16.607Z,7.24
2023-02-19T15:33:53.228Z,7.23
2023-02-19T15:36:31.845Z,7.42
2023-02-19T15:39:04.410Z,6.89
2023-02-19T15:41:37.181Z,6.62
2023-02-19T15:44:28.295Z,6.82
2023-02-19T15:47:03.858Z,7.01
2023-02-19T15:49:46.994Z,6.84
2023-02-19T15:52:26.866Z,6.71
2023-02-19T15:55:01.952Z,6.76
2023-02-19T15:57:37.665Z,6.87
2023-02-19T16:00:15.195Z,6.96
2023-02-19T16:02:48.705Z,7.00
2023-02-19T16:05:27.005Z,6.74
2023-02-19T16:08:10.951Z,6.97
2023-02-19T16:10:41.235Z,7.07
2023-02-19T16:13:14.632Z,6.84
2023-02-19T16:15:44.250Z,6.90
2023-02-19T16:18:17.847Z,7.13
2023-02-19T16:20:50.504Z,7.16
2023-02-19T16:23:24.468Z,6.75
2023-02-19T16:26:01.810Z,6.88
2023-02-19T16:28:36.453Z,6.81
2023-02-19T16:31:08.484Z,6.81
2023-02-19T16:33:43.306Z,6.63
2023-02-19T16:36:41.904Z,6.54
2023-02-19T16:39:25.332Z,5.94
2023-02-19T16:42:17.163Z,5.76
2023-02-19T16:44:47.709Z,6.47
2023-02-19T16:47:24.833Z,6.19
2023-02-19T16:49:57.713Z,5.78
2023-02-19T16:52:27.439Z,5.63
2023-02-19T16:54:57.057Z,5.32
2023-02-19T16:57:26.680Z,5.27
2023-02-19T16:59:56.264Z,5.27
2023-02-19T17:02:27.303Z,5.75
2023-02-19T17:04:59.558Z,5.76
2023-02-19T17:07:29.395Z,4.95
2023-02-19T17:09:58.996Z,4.73
2023-02-19T17:12:28.635Z,4.87
2023-02-19T17:14:58.260Z,5.06
2023-02-19T17:17:27.958Z,5.02
2023-02-19T17:20:00.132Z,4.96
2023-02-19T17:22:29.989Z,5.09
2023-02-19T17:24:59.542Z,4.82
2023-02-19T17:27:29.086Z,4.99
2023-02-19T17:29:58.680Z,4.69
2023-02-19T17:32:28.371Z,4.78
2023-02-19T17:35:00.538Z,4.66
2023-02-19T17:37:30.179Z,4.74
2023-02-19T17:39:59.734Z,4.82
2023-02-19T17:42:29.435Z,5.10
2023-02-19T17:44:59.051Z,5.15
2023-02-19T17:47:28.630Z,4.80
2023-02-19T17:50:01.306Z,4.89
2023-02-19T17:52:30.904Z,4.40
2023-02-19T17:55:00.668Z,4.45
2023-02-19T17:57:33.515Z,4.14
2023-02-19T18:00:04.677Z,3.99
2023-02-19T18:02:42.462Z,3.95
2023-02-19T18:05:14.957Z,3.87
2023-02-19T18:07:44.653Z,4.27
2023-02-19T18:10:15.363Z,4.59
2023-02-19T18:12:44.976Z,4.45
2023-02-19T18:15:19.969Z,4.42
2023-02-19T18:17:49.818Z,4.11
2023-02-19T18:20:24.301Z,4.25
2023-02-19T18:22:54.364Z,4.59
2023-02-19T18:25:25.074Z,4.55
2023-02-19T18:27:54.708Z,4.59
2023-02-19T18:30:25.631Z,4.31
2023-02-19T18:32:55.237Z,4.50
2023-02-19T18:35:27.427Z,4.29
2023-02-19T18:37:57.634Z,4.10
2023-02-19T18:40:28.776Z,4.05
2023-02-19T18:42:58.878Z,4.19
2023-02-19T18:45:29.739Z,4.23
2023-02-19T18:47:59.435Z,4.20
2023-02-19T18:50:32.006Z,4.13
2023-02-19T18:53:01.623Z,3.94
2023-02-19T18:55:31.160Z,3.74
2023-02-19T18:58:00.856Z,3.47
2023-02-19T19:00:30.480Z,3.24
2023-02-19T19:03:01.512Z,3.45
2023-02-19T19:05:33.643Z,3.57
2023-02-19T19:08:03.274Z,4.26
2023-02-19T19:10:33.053Z,4.29
2023-02-19T19:13:02.648Z,4.36
2023-02-19T19:15:32.230Z,4.85
2023-02-19T19:18:02.833Z,4.96
2023-02-19T19:20:34.953Z,4.85
2023-02-19T19:23:04.965Z,4.61
2023-02-19T19:25:34.552Z,4.07
2023-02-19T19:28:04.138Z,4.16
2023-02-19T19:30:33.893Z,4.23
2023-02-19T19:33:03.683Z,4.38
2023-02-19T19:35:35.811Z,4.49
2023-02-19T19:38:05.382Z,4.59
2023-02-19T19:40:34.906Z,4.16
2023-02-19T19:43:04.515Z,4.67
2023-02-19T19:45:34.173Z,4.51
2023-02-19T19:48:04.001Z,4.43
2023-02-19T19:50:36.222Z,4.87
2023-02-19T19:53:05.833Z,4.86
2023-02-19T19:55:35.413Z,4.90
2023-02-19T19:58:05.046Z,5.15
2023-02-19T20:00:34.843Z,4.54
2023-02-19T20:03:05.632Z,4.62
2023-02-19T20:05:37.853Z,4.53
2023-02-19T20:08:07.850Z,4.44
2023-02-19T20:10:37.418Z,4.82
2023-02-19T20:13:07.497Z,5.15
2023-02-19T20:15:37.390Z,5.25
2023-02-19T20:18:07.322Z,5.18
2023-02-19T20:20:39.491Z,5.56
2023-02-19T20:23:09.522Z,5.08
2023-02-19T20:25:39.086Z,5.38
2023-02-19T20:28:08.664Z,5.71
2023-02-19T20:30:39.166Z,5.85
2023-02-19T20:33:08.733Z,5.77
2023-02-19T20:35:40.885Z,5.64
2023-02-19T20:38:10.408Z,5.52
2023-02-19T20:40:39.961Z,5.48
2023-02-19T20:43:09.533Z,5.53
2023-02-19T20:45:39.294Z,5.71
2023-02-19T20:48:08.912Z,5.52
2023-02-19T20:50:41.045Z,5.53
2023-02-19T20:53:10.641Z,5.62
2023-02-19T20:55:40.406Z,5.54
2023-02-19T20:58:10.017Z,5.58
2023-02-19T21:00:39.647Z,5.54
2023-02-19T21:03:11.736Z,5.66
2023-02-19T21:05:44.230Z,5.61
2023-02-19T21:08:15.096Z,5.89
2023-02-19T21:10:44.708Z,6.01
2023-02-19T21:13:14.533Z,5.90
2023-02-19T21:15:44.349Z,6.17
2023-02-19T21:18:13.929Z,5.98
2023-02-19T21:20:46.124Z,6.02
2023-02-19T21:23:15.715Z,6.00
2023-02-19T21:25:45.315Z,6.02
2023-02-19T21:28:14.859Z,6.15
2023-02-19T21:30:44.550Z,5.89
2023-02-19T21:33:14.406Z,6.01
2023-02-19T21:35:46.522Z,5.91
2023-02-19T21:38:16.094Z,5.84
2023-02-19T21:40:45.697Z,5.69
2023-02-19T21:43:15.249Z,5.93
2023-02-19T21:45:45.151Z,6.04
2023-02-19T21:48:14.709Z,5.86
2023-02-19T21:50:47.496Z,5.82
2023-02-19T21:53:17.884Z,5.82
2023-02-19T21:55:57.902Z,5.99
2023-02-19T21:58:28.372Z,5.90
2023-02-19T22:00:58.259Z,6.01
2023-02-19T22:03:28.602Z,5.99
2023-02-19T22:06:04.055Z,5.93
2023-02-19T22:08:33.607Z,5.93
2023-02-19T22:11:03.163Z,5.84
2023-02-19T22:13:32.709Z,6.06
2023-02-19T22:16:02.257Z,6.00
2023-02-19T22:18:31.986Z,6.06
2023-02-19T22:21:05.416Z,5.85
2023-02-19T22:23:35.026Z,5.82
2023-02-19T22:26:04.637Z,5.94
2023-02-19T22:28:34.193Z,6.00
2023-02-19T22:31:03.816Z,6.02
2023-02-19T22:33:33.412Z,6.00
2023-02-19T22:36:05.671Z,6.01
2023-02-19T22:38:35.312Z,6.30
2023-02-19T22:41:05.406Z,6.15
2023-02-19T22:43:34.943Z,5.96
2023-02-19T22:46:04.681Z,5.97
2023-02-19T22:48:34.280Z,6.10
2023-02-19T22:51:06.814Z,6.04
2023-02-19T22:53:36.342Z,6.18
2023-02-19T22:56:05.913Z,6.25
2023-02-19T22:58:35.858Z,6.21
2023-02-19T23:01:05.532Z,6.15
2023-02-19T23:03:35.196Z,6.24
2023-02-19T23:06:08.444Z,6.13
2023-02-19T23:08:37.966Z,6.05
2023-02-19T23:11:07.516Z,6.16
2023-02-19T23:13:37.072Z,6.15
2023-02-19T23:16:06.809Z,6.14
2023-02-19T23:18:36.357Z,6.16
2023-02-19T23:21:08.557Z,6.21
2023-02-19T23:23:38.147Z,6.24
2023-02-19T23:26:08.041Z,6.21
2023-02-19T23:28:37.757Z,6.00
2023-02-19T23:31:07.867Z,6.11
2023-02-19T23:33:37.608Z,6.19
2023-02-19T23:36:11.614Z,6.26
2023-02-19T23:38:41.443Z,6.40
2023-02-19T23:41:12.519Z,6.24
2023-02-19T23:43:42.510Z,6.25
2023-02-19T23:46:15.888Z,6.34
2023-02-19T23:48:46.044Z,6.19
2023-02-19T23:51:18.169Z,6.34
2023-02-19T23:53:47.741Z,6.27
2023-02-19T23:56:25.608Z,6.31
2023-02-19T23:58:55.210Z,6.21
